Time;durP1;ratioP1;P1;durP2;ratioP2;P2;SDS_P1;SDS_P2;PMS_P1;PMS_P2;Temp;Humidity;BMP_temperature;BMP_pressure;BME280_temperature;BME280_humidity;BME280_pressure;Samples;Min_cycle;Max_cycle;Signal;HPM_P1;HPM_P2
2023/12/10 00:00:45;;;;;;;17.52;5.07;;;;;;;-12.19;63.03;101314.34;5066934;28;20028;-69
2023/12/10 00:03:11;;;;;;;15.50;5.83;;;;;;;-12.14;61.99;101333.28;5083487;28;20461;-68
2023/12/10 00:05:37;;;;;;;19.27;6.03;;;;;;;-12.37;62.13;101309.88;5063524;28;20093;-68
2023/12/10 00:08:04;;;;;;;14.23;6.33;;;;;;;-12.38;62.06;101344.13;5066394;28;20079;-69
2023/12/10 00:10:33;;;;;;;20.87;7.60;;;;;;;-12.24;63.02;101343.06;5078893;28;20049;-68
2023/12/10 00:12:59;;;;;;;19.23;5.60;;;;;;;-12.29;61.94;101357.66;5067150;28;20062;-69
2023/12/10 00:15:31;;;;;;;15.40;5.63;;;;;;;-12.76;62.26;101301.66;5084494;28;20052;-68
2023/12/10 00:17:57;;;;;;;16.20;6.03;;;;;;;-12.43;62.92;101340.22;5082246;28;20054;-69
2023/12/10 00:20:25;;;;;;;10.93;4.03;;;;;;;-12.62;63.27;101302.22;5064090;28;20048;-69
2023/12/10 00:22:54;;;;;;;19.13;6.30;;;;;;;-12.64;63.38;101282.00;5082551;28;20032;-70
2023/12/10 00:25:20;;;;;;;17.60;5.70;;;;;;;-12.42;63.31;101289.31;5065233;28;20040;-71
2023/12/10 00:27:46;;;;;;;11.33;4.70;;;;;;;-12.48;62.22;101303.72;5048605;28;20040;-69
2023/12/10 00:30:14;;;;;;;10.73;4.57;;;;;;;-12.31;63.16;101318.94;5082245;28;20135;-68
2023/12/10 00:32:46;;;;;;;17.13;6.13;;;;;;;-12.38;62.37;101311.50;5046687;28;20071;-69
2023/12/10 00:35:12;;;;;;;;;;;;;;;-12.29;63.27;101309.09;5066503;28;20055;-69
2023/12/10 00:37:40;;;;;;;13.20;5.63;;;;;;;-12.30;63.11;101282.19;5068624;28;19988;-69
2023/12/10 00:40:09;;;;;;;17.30;6.87;;;;;;;-12.41;63.05;101259.34;5082018;28;20040;-68
2023/12/10 00:42:37;;;;;;;14.73;4.00;;;;;;;-12.50;62.81;101260.00;5080724;28;20075;-69
2023/12/10 00:45:08;;;;;;;13.37;5.53;;;;;;;-12.57;62.82;101251.81;5064991;28;20494;-68
2023/12/10 00:47:37;;;;;;;16.50;6.63;;;;;;;-12.44;63.30;101284.13;5064244;28;20075;-68
2023/12/10 00:50:04;;;;;;;12.87;5.53;;;;;;;-12.33;62.95;101309.47;5081091;28;20097;-69
2023/12/10 00:52:30;;;;;;;18.50;7.30;;;;;;;-12.34;63.02;101291.00;5081774;28;20089;-69
2023/12/10 00:54:57;;;;;;;19.20;7.00;;;;;;;-12.63;63.34;101250.28;5065664;28;20036;-70
2023/12/10 00:57:26;;;;;;;15.80;5.70;;;;;;;-12.49;62.66;101294.41;5066377;28;20086;-70
2023/12/10 00:59:58;;;;;;;17.07;6.57;;;;;;;-12.31;63.18;101326.47;5055573;28;20090;-70
2023/12/10 01:02:27;;;;;;;14.80;5.73;;;;;;;-12.10;63.61;101329.47;5086017;28;20036;-71
2023/12/10 01:04:56;;;;;;;10.87;4.43;;;;;;;-12.13;63.32;101326.63;5052054;28;20062;-72
2023/12/10 01:07:26;;;;;;;16.30;6.90;;;;;;;-12.21;62.57;101323.31;5084685;28;20036;-71
2023/12/10 01:09:52;;;;;;;12.83;5.17;;;;;;;-12.72;63.02;101237.66;5068363;28;20122;-70
2023/12/10 01:12:22;;;;;;;13.53;5.43;;;;;;;-12.39;63.25;101282.13;5068759;28;20127;-70
2023/12/10 01:14:50;;;;;;;17.27;6.40;;;;;;;-12.14;63.33;101309.81;5067668;28;20036;-71
2023/12/10 01:17:17;;;;;;;13.63;4.93;;;;;;;-12.13;62.55;101309.06;5084245;28;20025;-70
2023/12/10 01:19:49;;;;;;;18.27;6.00;;;;;;;-12.29;62.85;101286.50;5086879;28;20127;-71
2023/12/10 01:22:16;;;;;;;13.13;6.03;;;;;;;-12.69;62.91;101225.44;5046020;28;20102;-70
2023/12/10 01:24:45;;;;;;;18.53;7.03;;;;;;;-12.04;64.40;101306.66;5069735;28;20035;-70
2023/12/10 01:27:18;;;;;;;18.03;6.77;;;;;;;-12.07;63.52;101266.16;5070190;28;20045;-71
2023/12/10 01:29:44;;;;;;;14.90;5.80;;;;;;;-12.13;63.30;101254.75;5073370;28;20059;-70
2023/12/10 01:32:17;;;;;;;11.83;5.70;;;;;;;-12.08;62.85;101281.97;5068088;28;20058;-70
2023/12/10 01:34:44;;;;;;;18.90;7.13;;;;;;;-12.12;63.41;101270.69;5053656;28;20066;-70
2023/12/10 01:37:10;;;;;;;16.10;5.57;;;;;;;-11.89;63.36;101287.22;5088808;28;20036;-71
2023/12/10 01:39:39;;;;;;;16.97;5.77;;;;;;;-12.02;62.55;101290.09;5097508;28;20127;-70
2023/12/10 01:42:09;;;;;;;18.02;6.57;;;;;;;-12.57;63.14;101194.13;5068130;28;20108;-71
2023/12/10 01:44:38;;;;;;;11.97;5.50;;;;;;;-12.05;62.89;101284.78;5099395;28;20047;-69
2023/12/10 01:47:05;;;;;;;14.20;6.10;;;;;;;-12.22;63.90;101252.88;5099820;28;20059;-71
2023/12/10 01:49:38;;;;;;;16.73;6.37;;;;;;;-11.97;64.50;101239.63;5080738;28;20040;-72
2023/12/10 01:52:07;;;;;;;11.53;4.73;;;;;;;-11.75;63.33;101264.47;5084001;28;21085;-71
2023/12/10 01:54:34;;;;;;;17.73;6.47;;;;;;;-11.65;64.89;101244.56;5087632;28;20058;-72
2023/12/10 01:57:12;;;;;;;15.20;6.30;;;;;;;-11.69;62.92;101267.59;5072137;28;21703;-72
2023/12/10 01:59:41;;;;;;;24.37;7.20;;;;;;;-11.70;63.44;101260.81;5083655;28;20103;-71
2023/12/10 02:02:12;;;;;;;15.43;6.07;;;;;;;-12.12;62.83;101233.94;5086425;28;20048;-71
2023/12/10 02:04:40;;;;;;;15.13;5.88;;;;;;;-11.90;62.99;101271.28;5076464;28;20064;-72
2023/12/10 02:07:06;;;;;;;17.40;7.10;;;;;;;-12.53;63.34;101147.69;5084873;28;20085;-72
2023/12/10 02:09:33;;;;;;;12.17;4.77;;;;;;;-11.89;63.21;101262.13;5067376;28;20032;-73
2023/12/10 02:11:59;;;;;;;12.23;5.40;;;;;;;-12.11;63.38;101238.22;5068618;28;20356;-71
2023/12/10 02:14:31;;;;;;;16.58;6.05;;;;;;;-12.68;63.96;101136.03;5084219;28;20497;-71
2023/12/10 02:17:01;;;;;;;19.23;6.60;;;;;;;-12.24;62.90;101192.47;5069696;28;20865;-71
2023/12/10 02:19:31;;;;;;;9.80;4.67;;;;;;;-12.17;63.22;101214.97;5066593;28;20085;-71
2023/12/10 02:21:59;;;;;;;15.37;6.60;;;;;;;-12.32;63.25;101205.88;5083908;28;20490;-69
2023/12/10 02:24:43;;;;;;;17.33;5.37;;;;;;;-11.92;64.32;101256.81;5085042;28;20043;-71
2023/12/10 02:27:10;;;;;;;14.13;4.83;;;;;;;-12.41;63.79;101200.78;5091444;28;20113;-71
2023/12/10 02:29:36;;;;;;;14.43;4.63;;;;;;;-12.38;63.00;101227.78;5085663;28;20509;-72
2023/12/10 02:32:15;;;;;;;10.10;3.93;;;;;;;-12.20;63.22;101291.59;5083181;28;20068;-70
2023/12/10 02:35:12;;;;;;;15.57;6.33;;;;;;;-11.88;65.07;101269.84;5084498;28;20040;-71
2023/12/10 02:37:38;;;;;;;16.07;6.50;;;;;;;-11.83;65.14;101210.94;5054511;28;20130;-71
2023/12/10 02:40:06;;;;;;;14.20;6.17;;;;;;;-12.28;63.60;101153.63;5082013;28;20133;-72
2023/12/10 02:42:38;;;;;;;16.20;5.60;;;;;;;-12.06;63.53;101243.72;5085520;28;20040;-72
2023/12/10 02:45:04;;;;;;;16.90;6.10;;;;;;;-12.36;64.05;101207.16;5066901;28;20067;-70
2023/12/10 02:47:39;;;;;;;13.13;4.83;;;;;;;-12.12;63.27;101220.47;5086372;28;20044;-71
2023/12/10 02:50:06;;;;;;;19.83;6.17;;;;;;;-12.45;63.77;101178.59;5068088;28;20047;-70
2023/12/10 02:52:39;;;;;;;15.80;5.33;;;;;;;-12.19;63.46;101259.13;5083702;28;20060;-71
2023/12/10 02:55:09;;;;;;;18.03;6.13;;;;;;;-12.44;63.43;101231.44;5056267;28;20052;-71
2023/12/10 02:57:35;;;;;;;16.40;6.60;;;;;;;-12.74;63.99;101177.31;5093030;28;20064;-70
2023/12/10 03:00:08;;;;;;;10.80;5.77;;;;;;;-12.29;64.77;101216.22;5066178;28;20032;-69
2023/12/10 03:02:37;;;;;;;12.67;5.13;;;;;;;-12.20;64.43;101231.34;5083335;28;20040;-67
2023/12/10 03:05:03;;;;;;;18.73;6.87;;;;;;;-12.31;63.87;101216.03;5081163;28;20040;-68
2023/12/10 03:07:29;;;;;;;16.57;6.07;;;;;;;-12.65;64.18;101179.00;5050909;28;20308;-68
2023/12/10 03:09:59;;;;;;;16.50;5.77;;;;;;;-12.69;64.16;101144.31;5081978;28;20166;-68
2023/12/10 03:12:25;;;;;;;24.03;8.47;;;;;;;-12.21;64.37;101237.09;5066544;28;21053;-68
2023/12/10 03:14:51;;;;;;;16.17;6.93;;;;;;;-12.54;64.08;101176.00;5083225;28;20619;-69
2023/12/10 03:17:17;;;;;;;20.40;7.90;;;;;;;-12.13;64.94;101212.06;5082423;28;20045;-68
2023/12/10 03:19:44;;;;;;;21.50;8.23;;;;;;;-11.76;64.69;101244.19;5077443;28;20387;-67
2023/12/10 03:22:10;;;;;;;19.27;7.27;;;;;;;-11.82;64.80;101221.84;5065032;28;20098;-66
2023/12/10 03:24:39;;;;;;;18.60;6.50;;;;;;;-12.00;63.96;101213.31;5047787;28;20036;-66
2023/12/10 03:27:05;;;;;;;23.93;7.07;;;;;;;-11.80;64.96;101245.50;5063462;28;20545;-68
2023/12/10 03:29:35;;;;;;;18.67;7.47;;;;;;;-11.78;63.80;101239.03;5066612;28;20036;-70
2023/12/10 03:32:01;;;;;;;20.27;6.67;;;;;;;-11.90;64.06;101215.13;5063709;28;20501;-69
2023/12/10 03:34:37;;;;;;;20.50;7.10;;;;;;;-11.82;64.75;101239.44;5050410;28;20044;-69
2023/12/10 03:37:03;;;;;;;17.20;5.83;;;;;;;-11.91;64.42;101241.88;5068343;28;20048;-69
2023/12/10 03:39:30;;;;;;;16.87;7.07;;;;;;;-11.97;64.94;101228.69;5067556;28;20490;-69
2023/12/10 03:41:56;;;;;;;14.63;4.90;;;;;;;-12.49;64.62;101143.88;5075693;28;20454;-70
2023/12/10 03:44:24;;;;;;;12.33;6.03;;;;;;;-12.00;65.42;101208.31;5065914;28;20043;-69
2023/12/10 03:46:54;;;;;;;14.53;4.67;;;;;;;-12.19;64.27;101182.94;5066793;28;20082;-71
2023/12/10 03:49:20;;;;;;;14.50;5.40;;;;;;;-12.06;64.78;101232.81;5078591;28;20086;-71
2023/12/10 03:51:56;;;;;;;;;;;;;;;;;;;;;
2023/12/10 03:54:23;;;;;;;16.73;7.27;;;;;;;-11.87;64.94;101216.38;5065370;28;20063;-72
2023/12/10 03:56:52;;;;;;;16.00;5.40;;;;;;;-12.45;64.13;101134.31;5073789;28;20040;-71
2023/12/10 03:59:21;;;;;;;17.60;6.07;;;;;;;-12.36;64.09;101171.13;5065577;28;20390;-70
2023/12/10 04:01:47;;;;;;;23.90;7.43;;;;;;;-12.45;64.43;101166.91;5082183;28;20066;-69
2023/12/10 04:04:13;;;;;;;15.13;6.33;;;;;;;-12.38;64.76;101208.63;5082910;28;20036;-72
2023/12/10 04:06:41;;;;;;;10.43;4.33;;;;;;;-12.62;64.57;101152.63;5081875;28;20496;-70
2023/12/10 04:09:10;;;;;;;16.97;6.60;;;;;;;-12.14;65.85;101192.72;5065427;28;20040;-71
2023/12/10 04:11:36;;;;;;;14.87;5.77;;;;;;;-11.89;64.83;101234.50;5084906;28;20036;-71
2023/12/10 04:14:09;;;;;;;12.67;5.70;;;;;;;-12.04;64.23;101218.78;5056856;28;20045;-72
2023/12/10 04:16:36;;;;;;;14.70;6.57;;;;;;;-11.90;64.83;101235.22;5083224;28;20051;-70
2023/12/10 04:19:03;;;;;;;19.80;7.30;;;;;;;-12.17;64.15;101209.97;5053551;28;20036;-70
2023/12/10 04:21:29;;;;;;;14.27;6.47;;;;;;;-12.08;65.40;101199.97;5082644;28;20821;-72
2023/12/10 04:23:56;;;;;;;20.00;6.77;;;;;;;-12.31;63.73;101173.38;5082068;28;20043;-71
2023/12/10 04:26:22;;;;;;;15.90;5.90;;;;;;;-11.95;65.02;101237.28;5064040;28;20180;-72
2023/12/10 04:28:49;;;;;;;21.50;6.33;;;;;;;-12.19;64.42;101218.06;5081396;28;20072;-69
2023/12/10 04:31:15;;;;;;;12.53;5.40;;;;;;;-12.24;64.52;101207.53;5081595;28;20032;-69
2023/12/10 04:33:44;;;;;;;11.17;4.60;;;;;;;-12.04;64.53;101243.91;5080422;28;20418;-69
2023/12/10 04:36:11;;;;;;;15.27;5.50;;;;;;;-12.04;65.27;101241.38;5055831;28;20151;-68
2023/12/10 04:38:43;;;;;;;16.40;6.73;;;;;;;-12.13;65.19;101222.09;5081443;28;20036;-69
2023/12/10 04:41:09;;;;;;;18.93;7.40;;;;;;;-11.94;65.99;101233.16;5064942;28;20036;-70
2023/12/10 04:43:36;;;;;;;16.13;6.17;;;;;;;-11.72;65.60;101231.22;5067294;28;20044;-70
2023/12/10 04:46:09;;;;;;;18.20;6.97;;;;;;;-11.72;64.76;101216.16;5063185;28;20431;-70
2023/12/10 04:48:35;;;;;;;18.50;6.67;;;;;;;-11.65;65.18;101208.53;5078798;28;20040;-70
2023/12/10 04:51:02;;;;;;;12.50;5.27;;;;;;;-11.48;65.41;101220.31;5082340;28;20036;-70
2023/12/10 04:53:29;;;;;;;17.63;6.53;;;;;;;-11.47;64.21;101218.66;5060283;28;20036;-68
2023/12/10 04:55:55;;;;;;;16.47;6.53;;;;;;;-11.78;64.26;101188.78;5088543;28;20047;-70
2023/12/10 04:58:22;;;;;;;11.60;4.67;;;;;;;-11.84;64.40;101189.06;5097071;28;20039;-69
2023/12/10 05:00:51;;;;;;;15.40;6.20;;;;;;;-11.92;65.26;101187.38;5047225;28;20036;-70
2023/12/10 05:03:17;;;;;;;16.77;5.47;;;;;;;-11.77;64.40;101237.38;5064458;28;20040;-70
2023/12/10 05:05:47;;;;;;;13.77;4.63;;;;;;;-11.97;63.96;101223.66;5060231;28;20037;-69
2023/12/10 05:08:13;;;;;;;20.63;6.70;;;;;;;-11.86;65.12;101233.22;5082703;28;20028;-70
2023/12/10 05:10:42;;;;;;;19.10;7.13;;;;;;;-12.13;64.97;101181.03;5065205;28;20033;-69
2023/12/10 05:13:11;;;;;;;17.80;6.20;;;;;;;-12.11;64.20;101213.13;5072171;28;20037;-70
2023/12/10 05:15:40;;;;;;;13.40;4.30;;;;;;;-12.05;64.42;101224.53;5064896;28;20048;-72
2023/12/10 05:18:07;;;;;;;17.23;7.00;;;;;;;-11.90;65.38;101227.69;5082521;28;20143;-70
2023/12/10 05:20:35;;;;;;;19.23;7.03;;;;;;;-12.56;65.28;101118.13;5082217;28;20056;-68
2023/12/10 05:23:01;;;;;;;15.80;5.60;;;;;;;-11.95;64.52;101239.78;5070367;28;20122;-69
2023/12/10 05:25:30;;;;;;;14.57;5.30;;;;;;;-12.08;64.88;101234.25;5063805;28;20051;-70
2023/12/10 05:27:58;;;;;;;20.03;6.80;;;;;;;-12.20;65.37;101184.53;5050619;28;20047;-70
2023/12/10 05:30:32;;;;;;;17.50;6.50;;;;;;;-11.68;66.24;101240.84;5094332;28;20078;-68
2023/12/10 05:32:58;;;;;;;9.17;4.37;;;;;;;-11.63;65.49;101218.72;5056618;28;20035;-71
2023/12/10 05:35:24;;;;;;;17.10;5.97;;;;;;;-11.86;65.17;101208.09;5064919;28;20089;-71
2023/12/10 05:37:53;;;;;;;13.37;5.83;;;;;;;-11.67;65.32;101250.19;5081822;28;20130;-70
2023/12/10 05:40:25;;;;;;;13.30;5.60;;;;;;;-12.03;64.47;101196.34;5063441;28;20041;-71
2023/12/10 05:42:53;;;;;;;11.27;5.57;;;;;;;-12.13;65.75;101181.94;5055113;28;20093;-71
2023/12/10 05:45:19;;;;;;;16.07;5.70;;;;;;;-11.71;64.83;101248.97;5062386;28;20409;-71
2023/12/10 05:47:45;;;;;;;15.20;6.07;;;;;;;-11.87;65.01;101210.44;5069164;28;20041;-71
2023/12/10 05:50:12;;;;;;;13.43;5.47;;;;;;;-12.02;64.48;101212.28;5084268;28;20040;-71
2023/12/10 05:52:51;;;;;;;7.93;4.20;;;;;;;-12.51;64.58;101128.66;5087942;28;20041;-73
2023/12/10 05:55:21;;;;;;;16.80;5.57;;;;;;;-12.03;64.49;101213.03;5074562;28;20048;-71
2023/12/10 05:57:51;;;;;;;20.47;7.27;;;;;;;-12.09;65.21;101192.31;5083728;28;20390;-72
2023/12/10 06:00:21;;;;;;;19.40;7.00;;;;;;;-11.77;66.11;101219.81;5053993;28;20051;-70
2023/12/10 06:02:51;;;;;;;20.57;6.20;;;;;;;-12.56;65.12;101069.59;5086374;28;20044;-72
2023/12/10 06:05:21;;;;;;;16.43;6.13;;;;;;;-12.04;65.76;101154.38;5058903;28;20051;-72
2023/12/10 06:07:57;;;;;;;18.70;6.40;;;;;;;-12.03;64.62;101147.75;5070670;28;20032;-71
2023/12/10 06:10:24;;;;;;;21.60;7.07;;;;;;;-11.85;65.63;101157.16;5068847;28;20040;-72
2023/12/10 06:13:01;;;;;;;18.10;6.73;;;;;;;-11.55;64.85;101186.09;5070763;28;20043;-71
2023/12/10 06:15:41;;;;;;;20.97;6.50;;;;;;;-11.51;64.61;101209.94;5086148;28;20105;-70
2023/12/10 06:18:07;;;;;;;19.33;6.63;;;;;;;-11.43;64.19;101239.22;5069822;28;20052;-71
2023/12/10 06:20:34;;;;;;;13.50;6.33;;;;;;;-11.90;65.60;101128.16;5084548;28;20039;-71
2023/12/10 06:23:00;;;;;;;16.80;6.27;;;;;;;-11.57;64.65;101204.28;5082939;28;20051;-70
2023/12/10 06:25:26;;;;;;;18.27;7.03;;;;;;;-11.72;65.85;101161.78;5055835;28;20040;-77
2023/12/10 06:27:54;;;;;;;16.90;6.80;;;;;;;-11.65;65.67;101135.66;5085505;28;20059;-77
2023/12/10 06:30:23;;;;;;;16.97;6.20;;;;;;;-11.66;64.92;101152.34;5054295;28;20051;-72
2023/12/10 06:32:49;;;;;;;15.13;6.03;;;;;;;-11.48;64.51;101200.19;5084165;28;20497;-70
2023/12/10 06:35:18;;;;;;;16.37;5.70;;;;;;;-11.94;64.87;101145.28;5080921;28;20037;-69
2023/12/10 06:37:48;;;;;;;14.97;6.47;;;;;;;-11.26;65.72;101220.84;5084883;28;20028;-71
2023/12/10 06:40:14;;;;;;;17.37;5.97;;;;;;;-11.60;63.84;101211.50;5049948;28;20044;-72
2023/12/10 06:42:45;;;;;;;15.33;6.70;;;;;;;-11.63;65.38;101216.19;5081481;28;20528;-70
2023/12/10 06:45:12;;;;;;;17.17;6.93;;;;;;;-11.56;65.21;101234.56;5050189;28;20094;-72
2023/12/10 06:47:39;;;;;;;17.43;6.63;;;;;;;-12.33;65.14;101089.53;5080261;28;20130;-71
2023/12/10 06:50:12;;;;;;;18.23;6.13;;;;;;;-11.48;65.37;101192.66;5049944;28;20044;-72
2023/12/10 06:52:42;;;;;;;13.13;6.20;;;;;;;-11.90;64.97;101125.63;5065153;28;20590;-71
2023/12/10 06:55:09;;;;;;;16.70;6.13;;;;;;;-11.55;64.66;101192.75;5082193;28;20098;-71
2023/12/10 06:57:35;;;;;;;18.27;6.40;;;;;;;-11.71;65.33;101170.19;5077172;28;20066;-71
2023/12/10 07:00:05;;;;;;;15.93;7.47;;;;;;;-11.18;65.74;101225.75;5082298;28;20043;-70
2023/12/10 07:02:33;;;;;;;15.90;6.60;;;;;;;-11.36;64.31;101206.44;5060721;28;20036;-71
2023/12/10 07:04:59;;;;;;;19.60;6.33;;;;;;;-11.28;64.77;101227.31;5077741;28;20043;-70
2023/12/10 07:07:31;;;;;;;16.00;7.00;;;;;;;-11.63;64.70;101199.53;5079641;28;20044;-72
2023/12/10 07:10:01;;;;;;;17.33;7.70;;;;;;;-11.48;64.54;101201.81;5064574;28;20048;-70
2023/12/10 07:12:29;;;;;;;17.23;6.30;;;;;;;-11.53;65.07;101204.72;5067265;28;20044;-71
2023/12/10 07:14:55;;;;;;;14.37;5.50;;;;;;;-11.99;64.77;101114.69;5057147;28;20040;-73
2023/12/10 07:17:21;;;;;;;19.17;6.33;;;;;;;-11.84;64.41;101153.91;5082341;28;20047;-70
2023/12/10 07:20:01;;;;;;;18.60;7.17;;;;;;;-12.17;65.22;101099.53;5064891;28;20497;-73
2023/12/10 07:22:32;;;;;;;16.07;6.30;;;;;;;-11.72;64.98;101159.28;5071273;28;20135;-70
2023/12/10 07:25:06;;;;;;;18.67;7.37;;;;;;;-11.24;64.70;101224.41;5077563;28;20107;-74
2023/12/10 07:27:35;;;;;;;15.50;6.60;;;;;;;-11.20;64.68;101231.53;5064664;28;20048;-71
2023/12/10 07:30:11;;;;;;;16.73;6.40;;;;;;;-11.88;64.69;101148.38;5062751;28;20044;-72
2023/12/10 07:32:37;;;;;;;19.07;7.80;;;;;;;-11.33;65.90;101202.47;5048537;28;20074;-70
2023/12/10 07:35:16;;;;;;;8.63;4.83;;;;;;;-11.18;64.88;101213.19;5070181;28;20047;-68
2023/12/10 07:37:45;;;;;;;16.70;6.60;;;;;;;-11.69;64.89;101126.91;5066653;28;20039;-70
2023/12/10 07:40:15;;;;;;;18.80;7.13;;;;;;;-11.04;65.67;101212.94;5088775;28;20098;-68
2023/12/10 07:42:45;;;;;;;19.20;8.00;;;;;;;-11.12;64.47;101199.59;5082398;28;20071;-71
2023/12/10 07:45:12;;;;;;;17.27;7.23;;;;;;;-11.43;64.45;101175.53;5083533;28;20044;-67
2023/12/10 07:47:40;;;;;;;17.23;7.67;;;;;;;-11.34;64.98;101181.47;5101893;28;20044;-66
2023/12/10 07:50:08;;;;;;;21.50;8.23;;;;;;;-11.10;65.56;101183.03;5079944;28;20067;-72
2023/12/10 07:52:34;;;;;;;17.30;7.87;;;;;;;-10.61;65.30;101219.69;5084526;28;20159;-72
2023/12/10 07:55:04;;;;;;;16.37;7.03;;;;;;;-10.97;64.88;101175.09;5082378;28;20082;-70
2023/12/10 07:57:36;;;;;;;20.23;7.83;;;;;;;-10.52;65.84;101194.53;5065363;28;20159;-67
2023/12/10 08:00:32;;;;;;;16.88;7.35;;;;;;;-10.55;64.41;101196.75;5083559;28;20100;-66
2023/12/10 08:03:16;;;;;;;21.47;7.57;;;;;;;-10.50;64.69;101197.22;5082133;28;20040;-70
2023/12/10 08:05:49;;;;;;;17.70;6.45;;;;;;;-10.67;64.37;101195.56;5074217;28;20036;-70
2023/12/10 08:08:16;;;;;;;14.93;6.87;;;;;;;-11.18;63.91;101127.72;5085343;28;20093;-71
2023/12/10 08:10:47;;;;;;;15.63;7.53;;;;;;;-10.34;65.95;101214.66;5068652;28;20048;-72
2023/12/10 08:13:21;;;;;;;16.73;7.23;;;;;;;-10.95;64.61;101104.81;5098418;28;20047;-68
2023/12/10 08:15:51;;;;;;;18.02;7.82;;;;;;;-10.21;65.22;101194.97;5084733;28;20108;-71
2023/12/10 08:18:17;;;;;;;23.98;8.85;;;;;;;-9.98;63.78;101218.97;5080784;28;20037;-65
2023/12/10 08:20:44;;;;;;;19.65;7.00;;;;;;;-10.04;65.16;101188.16;5063688;28;20072;-67
2023/12/10 08:23:11;;;;;;;22.80;8.00;;;;;;;-9.79;64.93;101183.81;5083399;28;20894;-72
2023/12/10 08:25:43;;;;;;;18.33;8.05;;;;;;;-9.79;64.77;101161.13;5087479;28;20044;-66
2023/12/10 08:28:12;;;;;;;;;;;;;;;-9.74;63.99;101206.94;5082170;28;20460;-68
2023/12/10 08:30:48;;;;;;;21.90;8.77;;;;;;;-10.22;64.08;101112.63;5081427;28;20493;-67
2023/12/10 08:33:16;;;;;;;26.00;9.02;;;;;;;-9.86;64.60;101166.34;5064490;28;20040;-67
2023/12/10 08:36:04;;;;;;;;;;;;;;;;;;;;;
2023/12/10 08:38:34;;;;;;;24.80;10.27;;;;;;;-9.91;62.70;101180.13;5084809;28;20059;-71
2023/12/10 08:41:06;;;;;;;21.63;9.68;;;;;;;-10.01;63.49;101138.94;5084753;28;20493;-71
2023/12/10 08:43:37;;;;;;;21.23;8.43;;;;;;;-9.59;65.01;101185.69;5083079;28;20413;-68
2023/12/10 08:46:04;;;;;;;20.27;7.55;;;;;;;-9.82;63.68;101124.69;5067066;28;20044;-69
2023/12/10 08:48:41;;;;;;;20.73;8.30;;;;;;;-9.36;62.89;101198.66;5069387;28;20063;-70
2023/12/10 08:51:10;;;;;;;20.45;7.93;;;;;;;-9.85;62.84;101165.59;5070403;28;20036;-68
2023/12/10 08:53:49;;;;;;;24.17;9.43;;;;;;;-9.73;63.79;101199.50;5062542;28;20478;-68
2023/12/10 08:56:36;;;;;;;19.90;8.38;;;;;;;-9.88;64.27;101161.16;5084074;28;20036;-68
2023/12/10 08:59:03;;;;;;;16.00;7.43;;;;;;;-9.99;63.05;101129.03;5061664;28;20042;-66
2023/12/10 09:01:30;;;;;;;17.98;8.75;;;;;;;-9.63;63.33;101205.44;5084645;28;20138;-67
2023/12/10 09:04:09;;;;;;;19.67;8.13;;;;;;;-9.98;63.80;101134.19;5082285;28;20055;-70
2023/12/10 09:06:39;;;;;;;14.30;7.00;;;;;;;-10.15;62.76;101139.28;5103582;28;20040;-69
2023/12/10 09:09:08;;;;;;;17.60;7.95;;;;;;;-9.80;63.51;101219.81;5081936;28;20101;-68
2023/12/10 09:11:35;;;;;;;17.52;8.02;;;;;;;-9.80;63.53;101202.19;5081285;28;20056;-69
2023/12/10 09:14:07;;;;;;;16.30;7.00;;;;;;;-9.61;63.98;101202.31;5062577;28;20158;-69
2023/12/10 09:16:33;;;;;;;16.77;6.88;;;;;;;-9.42;64.43;101183.84;5084427;28;20039;-70
2023/12/10 09:19:12;;;;;;;17.75;6.90;;;;;;;-9.54;63.39;101176.03;5066540;28;20100;-70
2023/12/10 09:21:45;;;;;;;15.65;6.10;;;;;;;-9.71;62.69;101154.31;5086432;28;20067;-66
2023/12/10 09:24:17;;;;;;;19.40;7.70;;;;;;;-9.86;63.57;101089.13;5102933;28;20044;-71
2023/12/10 09:26:46;;;;;;;13.05;6.70;;;;;;;-9.38;63.33;101118.72;5089333;28;20079;-73
2023/12/10 09:29:13;;;;;;;16.83;6.80;;;;;;;-9.25;63.00;101158.56;5090624;28;20605;-68
2023/12/10 09:32:02;;;;;;;17.85;7.18;;;;;;;-9.32;63.24;101122.56;5089284;28;20062;-77
2023/12/10 09:34:37;;;;;;;15.75;6.18;;;;;;;-9.03;62.99;101160.53;5064204;28;20048;-79
2023/12/10 09:37:05;;;;;;;16.80;6.65;;;;;;;-9.30;62.27;101179.06;5089434;28;20051;-69
2023/12/10 09:39:31;;;;;;;11.70;5.07;;;;;;;-9.47;62.13;101180.91;5087181;28;20044;-73
2023/12/10 09:42:01;;;;;;;17.58;8.18;;;;;;;-9.66;62.19;101173.25;5091091;28;20394;-71
2023/12/10 09:44:37;;;;;;;22.50;8.70;;;;;;;-9.66;63.88;101173.25;5055568;28;20040;-69
2023/12/10 09:47:10;;;;;;;20.90;8.85;;;;;;;-9.44;63.63;101143.38;5094126;28;20044;-73
2023/12/10 09:49:39;;;;;;;18.38;7.53;;;;;;;-9.05;63.38;101166.19;5089610;28;20046;-76
2023/12/10 09:52:06;;;;;;;17.90;8.90;;;;;;;-9.31;63.16;101167.19;5067716;28;20063;-74
2023/12/10 09:54:48;;;;;;;22.40;8.82;;;;;;;-9.43;63.96;101108.97;5088944;28;20048;-74
2023/12/10 09:57:14;;;;;;;22.38;8.95;;;;;;;-9.23;62.95;101146.13;5094574;28;20041;-72
2023/12/10 09:59:50;;;;;;;17.60;7.85;;;;;;;-9.78;62.22;101088.97;5086306;28;20067;-69
2023/12/10 10:02:17;;;;;;;15.88;6.53;;;;;;;-9.32;62.77;101158.75;5105090;28;20448;-71
2023/12/10 10:04:56;;;;;;;16.58;7.43;;;;;;;-9.40;62.60;101162.19;5089802;28;20090;-76
2023/12/10 10:07:32;;;;;;;21.17;8.50;;;;;;;-9.06;64.30;101151.81;5090144;28;20063;-73
2023/12/10 10:10:15;;;;;;;20.83;8.20;;;;;;;-8.76;62.74;101142.72;5065629;28;20048;-74
2023/12/10 10:12:42;;;;;;;21.42;9.77;;;;;;;-9.00;63.50;101074.16;5078650;28;20044;-72
2023/12/10 10:15:45;;;;;;;23.35;8.85;;;;;;;-8.50;62.81;101158.59;5088877;28;20055;-74
2023/12/10 10:18:21;;;;;;;13.98;5.68;;;;;;;-8.99;61.22;101166.75;5067060;28;20039;-75
2023/12/10 10:20:48;;;;;;;18.08;8.00;;;;;;;-9.09;62.54;101182.69;5071199;28;20094;-69
2023/12/10 10:23:30;;;;;;;17.38;7.22;;;;;;;-9.33;63.02;101100.59;5091427;28;20520;-72
2023/12/10 10:25:57;;;;;;;17.63;7.57;;;;;;;-9.17;62.61;101141.63;5086783;28;20134;-72
2023/12/10 10:28:24;;;;;;;15.77;7.03;;;;;;;-9.15;61.47;101190.56;5087919;28;20036;-75
2023/12/10 10:30:53;;;;;;;15.70;7.00;;;;;;;-9.34;62.47;101162.78;5083276;28;20132;-71
2023/12/10 10:33:28;;;;;;;16.02;7.53;;;;;;;-9.52;62.76;101100.56;5081362;28;20040;-70
2023/12/10 10:36:22;;;;;;;15.30;6.80;;;;;;;-9.17;62.06;101176.03;5086621;28;20041;-70
2023/12/10 10:40:09;;;;;;;17.35;6.43;;;;;;;-8.85;63.24;101171.41;5072635;28;20040;-79
2023/12/10 10:42:38;;;;;;;16.52;7.30;;;;;;;-9.35;63.83;100987.00;5088962;28;20063;-73
2023/12/10 10:45:27;;;;;;;21.08;7.65;;;;;;;-9.16;62.54;101002.16;5087997;28;20040;-69
2023/12/10 10:48:14;;;;;;;;;;;;;;;-8.70;60.86;101140.72;5085814;28;20040;-72
2023/12/10 10:50:46;;;;;;;20.15;7.75;;;;;;;-9.00;61.85;101119.56;5085483;28;19916;-72
2023/12/10 10:53:23;;;;;;;15.80;6.78;;;;;;;-9.22;61.89;101102.50;5090423;28;20051;-72
2023/12/10 10:56:18;;;;;;;20.50;8.55;;;;;;;-8.79;63.33;101121.50;5090172;28;20093;-74
2023/12/10 10:58:45;;;;;;;21.42;7.28;;;;;;;-8.81;62.86;101127.16;5070820;28;20042;-74
2023/12/10 11:01:40;;;;;;;19.52;8.30;;;;;;;-8.74;62.73;101121.91;5057561;28;20055;-72
2023/12/10 11:04:18;;;;;;;21.38;8.48;;;;;;;-8.89;62.76;101070.06;5090101;28;20046;-75
2023/12/10 11:06:53;;;;;;;12.48;6.07;;;;;;;-8.78;61.07;101123.28;5092440;28;20100;-72
2023/12/10 11:10:20;;;;;;;16.23;6.05;;;;;;;-9.51;62.11;101050.28;5075099;28;20048;-72
2023/12/10 11:12:51;;;;;;;14.13;6.53;;;;;;;-8.93;63.38;101095.03;5072263;28;20040;-73
2023/12/10 11:15:29;;;;;;;15.40;6.32;;;;;;;-8.67;62.04;101135.97;5079225;28;20036;-72
2023/12/10 11:18:01;;;;;;;17.60;5.25;;;;;;;-8.92;61.73;101148.88;5071739;28;20040;-70
2023/12/10 11:20:40;;;;;;;12.07;6.40;;;;;;;-9.02;62.03;101149.69;5092658;28;20039;-70
2023/12/10 11:23:19;;;;;;;17.55;6.30;;;;;;;-9.91;62.23;100966.88;5074114;28;20047;-73
2023/12/10 11:25:51;;;;;;;10.50;4.38;;;;;;;-9.03;62.20;101132.78;5083198;28;20622;-73
2023/12/10 11:28:48;;;;;;;15.43;5.70;;;;;;;-9.03;62.95;101083.97;5076398;28;20043;-67
2023/12/10 11:31:30;;;;;;;13.30;5.13;;;;;;;-9.06;62.07;101059.38;5085350;28;20040;-67